sensor_id;sensor_type;location;lat;lon;timestamp;temperature;humidity
5226;DHT22;2632;51.666;7.146;2023-02-28T00:00:30;0.20;99.90
5226;DHT22;2632;51.666;7.146;2023-02-28T00:02:58;0.20;99.90
5226;DHT22;2632;51.666;7.146;2023-02-28T00:05:26;0.10;99.90
5226;DHT22;2632;51.666;7.146;2023-02-28T00:07:53;0.10;99.90
5226;DHT22;2632;51.666;7.146;2023-02-28T00:10:23;0.00;99.90
5226;DHT22;2632;51.666;7.146;2023-02-28T00:12:51;0.00;99.90
5226;DHT22;2632;51.666;7.146;2023-02-28T00:15:18;-0.20;99.90
5226;DHT22;2632;51.666;7.146;2023-02-28T00:17:45;0.00;99.90
5226;DHT22;2632;51.666;7.146;2023-02-28T00:20:13;0.00;99.90
5226;DHT22;2632;51.666;7.146;2023-02-28T00:22:44;0.10;99.90
5226;DHT22;2632;51.666;7.146;2023-02-28T00:25:13;0.10;99.90
5226;DHT22;2632;51.666;7.146;2023-02-28T00:27:41;0.10;99.90
5226;DHT22;2632;51.666;7.146;2023-02-28T00:30:11;0.20;99.90
5226;DHT22;2632;51.666;7.146;2023-02-28T00:32:39;0.30;99.90
5226;DHT22;2632;51.666;7.146;2023-02-28T00:35:06;0.40;99.90
5226;DHT22;2632;51.666;7.146;2023-02-28T00:37:33;0.40;99.90
5226;DHT22;2632;51.666;7.146;2023-02-28T00:40:00;0.40;99.90
5226;DHT22;2632;51.666;7.146;2023-02-28T00:42:27;0.50;99.90
5226;DHT22;2632;51.666;7.146;2023-02-28T00:44:54;0.40;99.90
5226;DHT22;2632;51.666;7.146;2023-02-28T00:47:20;0.50;99.90
5226;DHT22;2632;51.666;7.146;2023-02-28T00:49:47;0.40;99.90
5226;DHT22;2632;51.666;7.146;2023-02-28T00:52:14;0.40;99.90
5226;DHT22;2632;51.666;7.146;2023-02-28T00:54:41;0.40;99.90
5226;DHT22;2632;51.666;7.146;2023-02-28T00:57:07;0.20;99.90
5226;DHT22;2632;51.666;7.146;2023-02-28T00:59:34;0.40;99.90
5226;DHT22;2632;51.666;7.146;2023-02-28T01:02:01;0.40;99.90
5226;DHT22;2632;51.666;7.146;2023-02-28T01:04:28;0.40;99.90
5226;DHT22;2632;51.666;7.146;2023-02-28T01:06:54;0.30;99.90
5226;DHT22;2632;51.666;7.146;2023-02-28T01:09:21;0.30;99.90
5226;DHT22;2632;51.666;7.146;2023-02-28T01:11:47;0.30;99.90
5226;DHT22;2632;51.666;7.146;2023-02-28T01:14:16;0.20;99.90
5226;DHT22;2632;51.666;7.146;2023-02-28T01:16:43;0.00;99.90
5226;DHT22;2632;51.666;7.146;2023-02-28T01:19:10;0.00;99.90
5226;DHT22;2632;51.666;7.146;2023-02-28T01:21:36;-0.20;99.90
5226;DHT22;2632;51.666;7.146;2023-02-28T01:24:04;-0.30;99.90
5226;DHT22;2632;51.666;7.146;2023-02-28T01:26:31;-0.30;99.90
5226;DHT22;2632;51.666;7.146;2023-02-28T01:28:58;-0.40;99.90
5226;DHT22;2632;51.666;7.146;2023-02-28T01:31:25;-0.40;99.90
5226;DHT22;2632;51.666;7.146;2023-02-28T01:33:52;-0.50;99.90
5226;DHT22;2632;51.666;7.146;2023-02-28T01:36:22;-0.50;99.90
5226;DHT22;2632;51.666;7.146;2023-02-28T01:38:49;-0.60;99.90
5226;DHT22;2632;51.666;7.146;2023-02-28T01:41:29;-0.60;99.90
5226;DHT22;2632;51.666;7.146;2023-02-28T01:44:55;-0.80;99.90
5226;DHT22;2632;51.666;7.146;2023-02-28T01:46:44;-0.70;99.90
5226;DHT22;2632;51.666;7.146;2023-02-28T01:49:14;-0.70;99.90
5226;DHT22;2632;51.666;7.146;2023-02-28T01:51:48;-0.80;99.90
5226;DHT22;2632;51.666;7.146;2023-02-28T01:54:31;-0.80;99.90
5226;DHT22;2632;51.666;7.146;2023-02-28T01:57:07;-0.70;99.90
5226;DHT22;2632;51.666;7.146;2023-02-28T02:00:21;-0.70;99.90
5226;DHT22;2632;51.666;7.146;2023-02-28T02:02:30;-0.70;99.90
5226;DHT22;2632;51.666;7.146;2023-02-28T02:05:22;-0.70;99.90
5226;DHT22;2632;51.666;7.146;2023-02-28T02:07:53;-0.80;99.90
5226;DHT22;2632;51.666;7.146;2023-02-28T02:10:27;-0.80;99.90
5226;DHT22;2632;51.666;7.146;2023-02-28T02:18:18;-0.90;99.90
5226;DHT22;2632;51.666;7.146;2023-02-28T02:24:03;-1.00;99.90
5226;DHT22;2632;51.666;7.146;2023-02-28T02:26:44;-1.10;99.90
5226;DHT22;2632;51.666;7.146;2023-02-28T02:32:14;-1.10;99.90
5226;DHT22;2632;51.666;7.146;2023-02-28T02:37:40;-1.10;99.90
5226;DHT22;2632;51.666;7.146;2023-02-28T02:40:31;-1.10;99.90
5226;DHT22;2632;51.666;7.146;2023-02-28T02:43:07;-1.10;99.90
5226;DHT22;2632;51.666;7.146;2023-02-28T02:45:52;-1.10;99.90
5226;DHT22;2632;51.666;7.146;2023-02-28T02:48:25;-1.10;99.90
5226;DHT22;2632;51.666;7.146;2023-02-28T02:50:58;-1.10;99.90
5226;DHT22;2632;51.666;7.146;2023-02-28T02:53:33;-1.10;99.90
5226;DHT22;2632;51.666;7.146;2023-02-28T02:56:02;-1.30;99.90
5226;DHT22;2632;51.666;7.146;2023-02-28T02:58:32;-1.30;99.90
5226;DHT22;2632;51.666;7.146;2023-02-28T03:01:01;-1.40;99.90
5226;DHT22;2632;51.666;7.146;2023-02-28T03:03:29;-1.40;99.90
5226;DHT22;2632;51.666;7.146;2023-02-28T03:05:59;-1.40;99.90
5226;DHT22;2632;51.666;7.146;2023-02-28T03:08:27;-1.50;99.90
5226;DHT22;2632;51.666;7.146;2023-02-28T03:10:59;-1.50;99.90
5226;DHT22;2632;51.666;7.146;2023-02-28T03:13:59;-1.60;99.90
5226;DHT22;2632;51.666;7.146;2023-02-28T03:16:34;-1.60;99.90
5226;DHT22;2632;51.666;7.146;2023-02-28T03:27:07;-1.50;99.90
5226;DHT22;2632;51.666;7.146;2023-02-28T03:29:40;-1.50;99.90
5226;DHT22;2632;51.666;7.146;2023-02-28T03:32:19;-1.50;99.90
5226;DHT22;2632;51.666;7.146;2023-02-28T03:37:28;-1.30;99.90
5226;DHT22;2632;51.666;7.146;2023-02-28T03:40:00;-1.50;99.90
5226;DHT22;2632;51.666;7.146;2023-02-28T03:42:29;-1.60;99.90
5226;DHT22;2632;51.666;7.146;2023-02-28T03:45:04;-1.70;99.90
5226;DHT22;2632;51.666;7.146;2023-02-28T03:47:41;-1.60;99.90
5226;DHT22;2632;51.666;7.146;2023-02-28T03:52:42;-1.80;99.90
5226;DHT22;2632;51.666;7.146;2023-02-28T03:55:13;-1.70;99.90
5226;DHT22;2632;51.666;7.146;2023-02-28T04:00:23;-1.80;99.90
5226;DHT22;2632;51.666;7.146;2023-02-28T04:02:53;-1.70;99.90
5226;DHT22;2632;51.666;7.146;2023-02-28T04:05:21;-1.80;99.90
5226;DHT22;2632;51.666;7.146;2023-02-28T04:07:48;-1.80;99.90
5226;DHT22;2632;51.666;7.146;2023-02-28T04:10:16;-1.80;99.90
5226;DHT22;2632;51.666;7.146;2023-02-28T04:12:43;-1.90;99.90
5226;DHT22;2632;51.666;7.146;2023-02-28T04:15:09;-1.90;99.90
5226;DHT22;2632;51.666;7.146;2023-02-28T04:17:37;-1.80;99.90
5226;DHT22;2632;51.666;7.146;2023-02-28T04:20:04;-1.70;99.90
5226;DHT22;2632;51.666;7.146;2023-02-28T04:22:36;-1.80;99.90
5226;DHT22;2632;51.666;7.146;2023-02-28T04:25:03;-1.80;99.90
5226;DHT22;2632;51.666;7.146;2023-02-28T04:27:32;-1.80;99.90
5226;DHT22;2632;51.666;7.146;2023-02-28T04:29:58;-1.80;99.90
5226;DHT22;2632;51.666;7.146;2023-02-28T04:32:25;-1.80;99.90
5226;DHT22;2632;51.666;7.146;2023-02-28T04:34:52;-1.80;99.90
5226;DHT22;2632;51.666;7.146;2023-02-28T04:37:18;-1.80;99.90
5226;DHT22;2632;51.666;7.146;2023-02-28T04:39:45;-1.70;99.90
5226;DHT22;2632;51.666;7.146;2023-02-28T04:42:12;-1.70;99.90
5226;DHT22;2632;51.666;7.146;2023-02-28T04:44:39;-1.70;99.90
5226;DHT22;2632;51.666;7.146;2023-02-28T04:47:06;-1.70;99.90
5226;DHT22;2632;51.666;7.146;2023-02-28T04:49:33;-1.70;99.90
5226;DHT22;2632;51.666;7.146;2023-02-28T04:51:59;-1.70;99.90
5226;DHT22;2632;51.666;7.146;2023-02-28T04:54:26;-1.80;99.90
5226;DHT22;2632;51.666;7.146;2023-02-28T04:56:54;-1.70;99.90
5226;DHT22;2632;51.666;7.146;2023-02-28T04:59:21;-1.70;99.90
5226;DHT22;2632;51.666;7.146;2023-02-28T05:01:49;-1.80;99.90
5226;DHT22;2632;51.666;7.146;2023-02-28T05:04:16;-1.80;99.90
5226;DHT22;2632;51.666;7.146;2023-02-28T05:06:42;-1.70;99.90
5226;DHT22;2632;51.666;7.146;2023-02-28T05:09:09;-1.80;99.90
5226;DHT22;2632;51.666;7.146;2023-02-28T05:11:38;-1.80;99.90
5226;DHT22;2632;51.666;7.146;2023-02-28T05:14:11;-1.80;99.90
5226;DHT22;2632;51.666;7.146;2023-02-28T05:16:38;-1.80;99.90
5226;DHT22;2632;51.666;7.146;2023-02-28T05:19:05;-1.80;99.90
5226;DHT22;2632;51.666;7.146;2023-02-28T05:21:37;-1.90;99.90
5226;DHT22;2632;51.666;7.146;2023-02-28T05:24:07;-1.90;99.90
5226;DHT22;2632;51.666;7.146;2023-02-28T05:26:37;-2.00;99.90
5226;DHT22;2632;51.666;7.146;2023-02-28T05:29:04;-2.00;99.90
5226;DHT22;2632;51.666;7.146;2023-02-28T05:31:31;-2.00;99.90
5226;DHT22;2632;51.666;7.146;2023-02-28T05:33:59;-2.00;99.90
5226;DHT22;2632;51.666;7.146;2023-02-28T05:36:25;-2.10;99.90
5226;DHT22;2632;51.666;7.146;2023-02-28T05:38:52;-2.10;99.90
5226;DHT22;2632;51.666;7.146;2023-02-28T05:41:19;-2.10;99.90
5226;DHT22;2632;51.666;7.146;2023-02-28T05:43:47;-2.10;99.90
5226;DHT22;2632;51.666;7.146;2023-02-28T05:46:14;-2.00;99.90
5226;DHT22;2632;51.666;7.146;2023-02-28T05:48:46;-2.10;99.90
5226;DHT22;2632;51.666;7.146;2023-02-28T05:51:13;-2.10;99.90
5226;DHT22;2632;51.666;7.146;2023-02-28T05:53:39;-2.10;99.90
5226;DHT22;2632;51.666;7.146;2023-02-28T05:56:06;-2.10;99.90
5226;DHT22;2632;51.666;7.146;2023-02-28T05:58:32;-2.10;99.90
5226;DHT22;2632;51.666;7.146;2023-02-28T06:01:01;-2.10;99.90
5226;DHT22;2632;51.666;7.146;2023-02-28T06:03:45;-2.00;99.90
5226;DHT22;2632;51.666;7.146;2023-02-28T06:06:11;-2.00;99.90
5226;DHT22;2632;51.666;7.146;2023-02-28T06:08:38;-2.00;99.90
5226;DHT22;2632;51.666;7.146;2023-02-28T06:11:04;-2.00;99.90
5226;DHT22;2632;51.666;7.146;2023-02-28T06:13:32;-2.00;99.90
5226;DHT22;2632;51.666;7.146;2023-02-28T06:16:01;-2.00;99.90
5226;DHT22;2632;51.666;7.146;2023-02-28T06:18:27;-2.00;99.90
5226;DHT22;2632;51.666;7.146;2023-02-28T06:20:54;-2.10;99.90
5226;DHT22;2632;51.666;7.146;2023-02-28T06:23:22;-2.10;99.90
5226;DHT22;2632;51.666;7.146;2023-02-28T06:25:48;-2.10;99.90
5226;DHT22;2632;51.666;7.146;2023-02-28T06:28:16;-2.10;99.90
5226;DHT22;2632;51.666;7.146;2023-02-28T06:30:42;-2.20;99.90
5226;DHT22;2632;51.666;7.146;2023-02-28T06:33:12;-2.10;99.90
5226;DHT22;2632;51.666;7.146;2023-02-28T06:35:38;-2.10;99.90
5226;DHT22;2632;51.666;7.146;2023-02-28T06:38:05;-2.10;99.90
5226;DHT22;2632;51.666;7.146;2023-02-28T06:40:32;-2.00;99.90
5226;DHT22;2632;51.666;7.146;2023-02-28T06:43:01;-2.00;99.90
5226;DHT22;2632;51.666;7.146;2023-02-28T06:45:28;-2.00;99.90
5226;DHT22;2632;51.666;7.146;2023-02-28T06:47:55;-2.00;99.90
5226;DHT22;2632;51.666;7.146;2023-02-28T06:50:21;-2.00;99.90
5226;DHT22;2632;51.666;7.146;2023-02-28T06:52:48;-1.90;99.90
5226;DHT22;2632;51.666;7.146;2023-02-28T06:55:15;-1.90;99.90
5226;DHT22;2632;51.666;7.146;2023-02-28T06:57:41;-1.90;99.90
5226;DHT22;2632;51.666;7.146;2023-02-28T07:00:09;-1.90;99.90
5226;DHT22;2632;51.666;7.146;2023-02-28T07:02:36;-1.80;99.90
5226;DHT22;2632;51.666;7.146;2023-02-28T07:05:05;-1.60;99.90
5226;DHT22;2632;51.666;7.146;2023-02-28T07:07:32;-1.50;99.90
5226;DHT22;2632;51.666;7.146;2023-02-28T07:09:58;-1.40;99.90
5226;DHT22;2632;51.666;7.146;2023-02-28T07:12:25;-1.30;99.90
5226;DHT22;2632;51.666;7.146;2023-02-28T07:14:52;-1.20;99.90
5226;DHT22;2632;51.666;7.146;2023-02-28T07:17:18;-1.10;99.90
5226;DHT22;2632;51.666;7.146;2023-02-28T07:19:45;-0.90;99.90
5226;DHT22;2632;51.666;7.146;2023-02-28T07:22:12;-0.60;99.90
5226;DHT22;2632;51.666;7.146;2023-02-28T07:24:41;0.60;99.90
5226;DHT22;2632;51.666;7.146;2023-02-28T07:27:08;2.20;99.40
5226;DHT22;2632;51.666;7.146;2023-02-28T07:29:34;1.50;99.90
5226;DHT22;2632;51.666;7.146;2023-02-28T07:32:01;1.40;99.90
5226;DHT22;2632;51.666;7.146;2023-02-28T07:34:27;1.30;99.90
5226;DHT22;2632;51.666;7.146;2023-02-28T07:36:54;1.40;99.90
5226;DHT22;2632;51.666;7.146;2023-02-28T07:39:21;1.60;99.90
5226;DHT22;2632;51.666;7.146;2023-02-28T07:41:48;3.30;99.80
5226;DHT22;2632;51.666;7.146;2023-02-28T07:44:15;2.40;98.80
5226;DHT22;2632;51.666;7.146;2023-02-28T07:46:42;3.40;96.70
5226;DHT22;2632;51.666;7.146;2023-02-28T07:49:09;6.70;88.80
5226;DHT22;2632;51.666;7.146;2023-02-28T07:51:35;10.20;60.40
5226;DHT22;2632;51.666;7.146;2023-02-28T07:54:02;13.00;49.10
5226;DHT22;2632;51.666;7.146;2023-02-28T07:56:29;15.40;41.10
5226;DHT22;2632;51.666;7.146;2023-02-28T07:58:56;15.40;37.70
5226;DHT22;2632;51.666;7.146;2023-02-28T08:01:22;14.70;37.60
5226;DHT22;2632;51.666;7.146;2023-02-28T08:03:49;15.30;37.90
5226;DHT22;2632;51.666;7.146;2023-02-28T08:06:23;16.80;36.90
5226;DHT22;2632;51.666;7.146;2023-02-28T08:08:49;18.50;34.00
5226;DHT22;2632;51.666;7.146;2023-02-28T08:11:17;20.00;32.10
5226;DHT22;2632;51.666;7.146;2023-02-28T08:13:45;21.30;29.70
5226;DHT22;2632;51.666;7.146;2023-02-28T08:16:13;21.70;28.90
5226;DHT22;2632;51.666;7.146;2023-02-28T08:18:44;22.50;28.50
5226;DHT22;2632;51.666;7.146;2023-02-28T08:21:11;22.90;27.80
5226;DHT22;2632;51.666;7.146;2023-02-28T08:23:37;23.90;26.90
5226;DHT22;2632;51.666;7.146;2023-02-28T08:26:04;24.90;25.90
5226;DHT22;2632;51.666;7.146;2023-02-28T08:28:31;25.60;25.30
5226;DHT22;2632;51.666;7.146;2023-02-28T08:30:59;25.40;23.80
5226;DHT22;2632;51.666;7.146;2023-02-28T08:33:26;24.50;26.20
5226;DHT22;2632;51.666;7.146;2023-02-28T08:35:54;23.70;25.80
5226;DHT22;2632;51.666;7.146;2023-02-28T08:38:22;23.00;25.80
5226;DHT22;2632;51.666;7.146;2023-02-28T08:40:49;22.10;25.10
5226;DHT22;2632;51.666;7.146;2023-02-28T08:43:16;22.10;25.90
5226;DHT22;2632;51.666;7.146;2023-02-28T08:45:42;22.10;25.70
5226;DHT22;2632;51.666;7.146;2023-02-28T08:48:09;19.90;27.00
5226;DHT22;2632;51.666;7.146;2023-02-28T08:50:36;20.70;26.60
5226;DHT22;2632;51.666;7.146;2023-02-28T08:53:02;21.60;26.40
5226;DHT22;2632;51.666;7.146;2023-02-28T08:55:29;22.20;25.30
5226;DHT22;2632;51.666;7.146;2023-02-28T08:57:58;23.60;25.00
5226;DHT22;2632;51.666;7.146;2023-02-28T09:00:24;23.50;24.00
5226;DHT22;2632;51.666;7.146;2023-02-28T09:02:51;24.10;24.30
5226;DHT22;2632;51.666;7.146;2023-02-28T09:05:18;24.60;23.60
5226;DHT22;2632;51.666;7.146;2023-02-28T09:07:45;23.80;23.80
5226;DHT22;2632;51.666;7.146;2023-02-28T09:10:11;23.50;23.00
5226;DHT22;2632;51.666;7.146;2023-02-28T09:12:38;24.50;24.10
5226;DHT22;2632;51.666;7.146;2023-02-28T09:15:06;25.00;23.70
5226;DHT22;2632;51.666;7.146;2023-02-28T09:17:32;24.00;22.90
5226;DHT22;2632;51.666;7.146;2023-02-28T09:19:59;23.90;23.50
5226;DHT22;2632;51.666;7.146;2023-02-28T09:22:25;22.40;24.50
5226;DHT22;2632;51.666;7.146;2023-02-28T09:24:52;23.40;23.90
5226;DHT22;2632;51.666;7.146;2023-02-28T09:27:19;23.70;23.30
5226;DHT22;2632;51.666;7.146;2023-02-28T09:29:45;24.40;23.00
5226;DHT22;2632;51.666;7.146;2023-02-28T09:32:12;22.50;23.60
5226;DHT22;2632;51.666;7.146;2023-02-28T09:34:39;22.90;24.70
5226;DHT22;2632;51.666;7.146;2023-02-28T09:37:06;22.40;25.10
5226;DHT22;2632;51.666;7.146;2023-02-28T09:39:33;23.00;24.50
5226;DHT22;2632;51.666;7.146;2023-02-28T09:42:01;24.10;24.00
5226;DHT22;2632;51.666;7.146;2023-02-28T09:44:48;24.80;23.70
5226;DHT22;2632;51.666;7.146;2023-02-28T09:47:36;26.30;23.00
5226;DHT22;2632;51.666;7.146;2023-02-28T09:50:30;26.50;22.30
5226;DHT22;2632;51.666;7.146;2023-02-28T09:53:02;26.00;23.00
5226;DHT22;2632;51.666;7.146;2023-02-28T09:55:36;27.30;21.50
5226;DHT22;2632;51.666;7.146;2023-02-28T09:58:41;27.90;21.60
5226;DHT22;2632;51.666;7.146;2023-02-28T10:07:17;26.70;22.30
5226;DHT22;2632;51.666;7.146;2023-02-28T10:09:50;26.70;21.80
5226;DHT22;2632;51.666;7.146;2023-02-28T10:12:20;26.20;21.10
5226;DHT22;2632;51.666;7.146;2023-02-28T10:14:49;26.40;22.20
5226;DHT22;2632;51.666;7.146;2023-02-28T10:17:21;26.50;22.20
5226;DHT22;2632;51.666;7.146;2023-02-28T10:20:04;27.70;21.80
5226;DHT22;2632;51.666;7.146;2023-02-28T10:27:45;25.30;21.90
5226;DHT22;2632;51.666;7.146;2023-02-28T10:30:13;23.20;22.50
5226;DHT22;2632;51.666;7.146;2023-02-28T10:32:49;23.40;23.40
5226;DHT22;2632;51.666;7.146;2023-02-28T10:35:22;23.60;23.20
5226;DHT22;2632;51.666;7.146;2023-02-28T10:37:58;21.20;24.60
5226;DHT22;2632;51.666;7.146;2023-02-28T10:40:34;21.40;25.60
5226;DHT22;2632;51.666;7.146;2023-02-28T10:43:17;19.60;25.10
5226;DHT22;2632;51.666;7.146;2023-02-28T10:48:36;13.30;29.30
5226;DHT22;2632;51.666;7.146;2023-02-28T10:51:05;13.80;32.00
5226;DHT22;2632;51.666;7.146;2023-02-28T10:53:54;12.50;32.00
5226;DHT22;2632;51.666;7.146;2023-02-28T10:56:29;11.80;32.40
5226;DHT22;2632;51.666;7.146;2023-02-28T11:01:48;12.60;31.30
5226;DHT22;2632;51.666;7.146;2023-02-28T11:04:33;11.20;33.50
5226;DHT22;2632;51.666;7.146;2023-02-28T11:09:38;9.10;37.20
5226;DHT22;2632;51.666;7.146;2023-02-28T11:12:22;14.70;35.60
5226;DHT22;2632;51.666;7.146;2023-02-28T11:14:53;14.60;33.00
5226;DHT22;2632;51.666;7.146;2023-02-28T11:17:26;18.40;29.20
5226;DHT22;2632;51.666;7.146;2023-02-28T11:19:58;19.70;26.40
5226;DHT22;2632;51.666;7.146;2023-02-28T11:22:31;20.50;26.80
5226;DHT22;2632;51.666;7.146;2023-02-28T11:25:31;21.10;25.70
5226;DHT22;2632;51.666;7.146;2023-02-28T11:28:01;19.70;25.20
5226;DHT22;2632;51.666;7.146;2023-02-28T11:33:07;22.80;25.80
5226;DHT22;2632;51.666;7.146;2023-02-28T11:35:45;21.00;24.30
5226;DHT22;2632;51.666;7.146;2023-02-28T11:38:14;22.30;24.70
5226;DHT22;2632;51.666;7.146;2023-02-28T11:41:05;21.60;24.50
5226;DHT22;2632;51.666;7.146;2023-02-28T11:51:35;22.30;24.50
5226;DHT22;2632;51.666;7.146;2023-02-28T12:02:59;22.20;24.90
5226;DHT22;2632;51.666;7.146;2023-02-28T12:22:00;21.30;24.80
5226;DHT22;2632;51.666;7.146;2023-02-28T12:24:39;21.40;25.20
5226;DHT22;2632;51.666;7.146;2023-02-28T12:27:11;19.90;26.60
5226;DHT22;2632;51.666;7.146;2023-02-28T12:29:56;19.30;27.00
5226;DHT22;2632;51.666;7.146;2023-02-28T12:32:36;18.90;27.00
5226;DHT22;2632;51.666;7.146;2023-02-28T12:37:51;11.30;34.70
5226;DHT22;2632;51.666;7.146;2023-02-28T12:40:23;10.80;36.70
5226;DHT22;2632;51.666;7.146;2023-02-28T12:43:07;10.20;37.30
5226;DHT22;2632;51.666;7.146;2023-02-28T12:45:50;11.10;38.40
5226;DHT22;2632;51.666;7.146;2023-02-28T12:48:43;12.20;35.80
5226;DHT22;2632;51.666;7.146;2023-02-28T12:51:11;13.30;34.50
5226;DHT22;2632;51.666;7.146;2023-02-28T12:56:23;14.00;33.50
5226;DHT22;2632;51.666;7.146;2023-02-28T12:59:10;13.10;32.50
5226;DHT22;2632;51.666;7.146;2023-02-28T13:01:51;12.00;35.00
5226;DHT22;2632;51.666;7.146;2023-02-28T13:09:54;12.00;35.70
5226;DHT22;2632;51.666;7.146;2023-02-28T13:12:21;13.10;35.00
5226;DHT22;2632;51.666;7.146;2023-02-28T13:14:50;12.80;34.50
5226;DHT22;2632;51.666;7.146;2023-02-28T13:17:21;14.40;34.30
5226;DHT22;2632;51.666;7.146;2023-02-28T13:27:55;14.80;32.00
5226;DHT22;2632;51.666;7.146;2023-02-28T13:38:48;11.80;37.20
5226;DHT22;2632;51.666;7.146;2023-02-28T13:52:15;11.20;37.80
5226;DHT22;2632;51.666;7.146;2023-02-28T13:55:12;10.70;37.90
5226;DHT22;2632;51.666;7.146;2023-02-28T14:03:35;12.90;36.80
5226;DHT22;2632;51.666;7.146;2023-02-28T14:06:26;13.00;36.70
5226;DHT22;2632;51.666;7.146;2023-02-28T14:11:40;11.90;37.00
5226;DHT22;2632;51.666;7.146;2023-02-28T14:14:08;10.70;39.30
5226;DHT22;2632;51.666;7.146;2023-02-28T14:16:46;10.60;41.00
5226;DHT22;2632;51.666;7.146;2023-02-28T14:19:28;10.90;39.60
5226;DHT22;2632;51.666;7.146;2023-02-28T14:22:10;10.90;40.00
5226;DHT22;2632;51.666;7.146;2023-02-28T14:27:31;9.60;42.20
5226;DHT22;2632;51.666;7.146;2023-02-28T14:36:25;9.80;40.90
5226;DHT22;2632;51.666;7.146;2023-02-28T14:39:11;9.70;41.10
5226;DHT22;2632;51.666;7.146;2023-02-28T14:41:52;9.60;41.90
5226;DHT22;2632;51.666;7.146;2023-02-28T14:44:21;9.20;41.70
5226;DHT22;2632;51.666;7.146;2023-02-28T14:47:00;9.40;41.90
5226;DHT22;2632;51.666;7.146;2023-02-28T14:49:37;9.30;42.00
5226;DHT22;2632;51.666;7.146;2023-02-28T14:54:39;8.90;43.80
5226;DHT22;2632;51.666;7.146;2023-02-28T14:57:06;8.60;42.90
5226;DHT22;2632;51.666;7.146;2023-02-28T14:59:35;8.10;44.50
5226;DHT22;2632;51.666;7.146;2023-02-28T15:02:23;7.90;45.40
5226;DHT22;2632;51.666;7.146;2023-02-28T15:05:00;8.20;45.60
5226;DHT22;2632;51.666;7.146;2023-02-28T15:07:28;8.30;45.10
5226;DHT22;2632;51.666;7.146;2023-02-28T15:12:56;8.20;45.10
5226;DHT22;2632;51.666;7.146;2023-02-28T15:15:35;8.00;45.30
5226;DHT22;2632;51.666;7.146;2023-02-28T15:18:48;7.60;45.90
5226;DHT22;2632;51.666;7.146;2023-02-28T15:21:45;7.50;47.00
5226;DHT22;2632;51.666;7.146;2023-02-28T15:24:41;8.20;47.00
5226;DHT22;2632;51.666;7.146;2023-02-28T15:27:21;7.60;47.50
5226;DHT22;2632;51.666;7.146;2023-02-28T15:29:53;7.30;47.30
5226;DHT22;2632;51.666;7.146;2023-02-28T15:32:34;7.30;48.40
5226;DHT22;2632;51.666;7.146;2023-02-28T15:35:29;7.40;48.40
5226;DHT22;2632;51.666;7.146;2023-02-28T15:38:00;7.30;48.60
5226;DHT22;2632;51.666;7.146;2023-02-28T15:40:31;7.50;48.10
5226;DHT22;2632;51.666;7.146;2023-02-28T15:43:18;7.20;48.00
5226;DHT22;2632;51.666;7.146;2023-02-28T15:45:47;7.10;48.90
5226;DHT22;2632;51.666;7.146;2023-02-28T15:48:22;7.30;48.80
5226;DHT22;2632;51.666;7.146;2023-02-28T15:51:02;7.20;48.80
5226;DHT22;2632;51.666;7.146;2023-02-28T15:53:32;7.00;49.60
5226;DHT22;2632;51.666;7.146;2023-02-28T15:56:02;7.10;50.40
5226;DHT22;2632;51.666;7.146;2023-02-28T15:58:30;6.90;50.70
5226;DHT22;2632;51.666;7.146;2023-02-28T16:01:19;6.80;49.90
5226;DHT22;2632;51.666;7.146;2023-02-28T16:03:50;6.70;50.90
5226;DHT22;2632;51.666;7.146;2023-02-28T16:08:53;6.50;50.80
5226;DHT22;2632;51.666;7.146;2023-02-28T16:11:21;6.40;50.90
5226;DHT22;2632;51.666;7.146;2023-02-28T16:13:49;6.50;51.80
5226;DHT22;2632;51.666;7.146;2023-02-28T16:16:24;6.50;51.00
5226;DHT22;2632;51.666;7.146;2023-02-28T16:18:52;6.50;51.70
5226;DHT22;2632;51.666;7.146;2023-02-28T16:21:19;6.50;51.60
5226;DHT22;2632;51.666;7.146;2023-02-28T16:23:46;6.40;51.80
5226;DHT22;2632;51.666;7.146;2023-02-28T16:26:20;6.30;51.60
5226;DHT22;2632;51.666;7.146;2023-02-28T16:28:48;6.10;52.30
5226;DHT22;2632;51.666;7.146;2023-02-28T16:31:15;6.00;52.80
5226;DHT22;2632;51.666;7.146;2023-02-28T16:33:44;6.10;53.50
5226;DHT22;2632;51.666;7.146;2023-02-28T16:36:16;6.10;53.60
5226;DHT22;2632;51.666;7.146;2023-02-28T16:38:43;6.00;53.80
5226;DHT22;2632;51.666;7.146;2023-02-28T16:41:14;5.90;55.00
5226;DHT22;2632;51.666;7.146;2023-02-28T16:43:47;5.80;54.70
5226;DHT22;2632;51.666;7.146;2023-02-28T16:46:14;5.80;56.30
5226;DHT22;2632;51.666;7.146;2023-02-28T16:48:47;5.60;58.50
5226;DHT22;2632;51.666;7.146;2023-02-28T16:51:18;5.50;57.50
5226;DHT22;2632;51.666;7.146;2023-02-28T16:53:45;5.50;57.10
5226;DHT22;2632;51.666;7.146;2023-02-28T16:56:24;5.50;57.80
5226;DHT22;2632;51.666;7.146;2023-02-28T16:58:51;5.30;59.90
5226;DHT22;2632;51.666;7.146;2023-02-28T17:01:20;5.30;60.50
5226;DHT22;2632;51.666;7.146;2023-02-28T17:03:49;5.20;60.50
5226;DHT22;2632;51.666;7.146;2023-02-28T17:06:25;5.10;62.20
5226;DHT22;2632;51.666;7.146;2023-02-28T17:08:54;5.00;63.80
5226;DHT22;2632;51.666;7.146;2023-02-28T17:11:21;5.00;64.50
5226;DHT22;2632;51.666;7.146;2023-02-28T17:13:48;4.90;66.50
5226;DHT22;2632;51.666;7.146;2023-02-28T17:16:24;4.80;66.60
5226;DHT22;2632;51.666;7.146;2023-02-28T17:18:54;4.80;66.90
5226;DHT22;2632;51.666;7.146;2023-02-28T17:21:21;4.70;69.40
5226;DHT22;2632;51.666;7.146;2023-02-28T17:23:47;4.60;70.50
5226;DHT22;2632;51.666;7.146;2023-02-28T17:26:16;4.40;73.50
5226;DHT22;2632;51.666;7.146;2023-02-28T17:28:47;4.20;76.00
5226;DHT22;2632;51.666;7.146;2023-02-28T17:31:14;4.10;76.90
5226;DHT22;2632;51.666;7.146;2023-02-28T17:33:41;4.10;81.00
5226;DHT22;2632;51.666;7.146;2023-02-28T17:36:15;4.10;79.80
5226;DHT22;2632;51.666;7.146;2023-02-28T17:38:42;4.00;83.70
5226;DHT22;2632;51.666;7.146;2023-02-28T17:41:12;3.90;80.20
5226;DHT22;2632;51.666;7.146;2023-02-28T17:43:39;3.90;83.00
5226;DHT22;2632;51.666;7.146;2023-02-28T17:46:16;3.80;87.50
5226;DHT22;2632;51.666;7.146;2023-02-28T17:48:44;3.60;89.20
5226;DHT22;2632;51.666;7.146;2023-02-28T17:51:13;3.50;90.70
5226;DHT22;2632;51.666;7.146;2023-02-28T17:53:40;3.40;91.80
5226;DHT22;2632;51.666;7.146;2023-02-28T17:56:18;3.20;92.50
5226;DHT22;2632;51.666;7.146;2023-02-28T17:58:45;3.10;92.70
5226;DHT22;2632;51.666;7.146;2023-02-28T18:01:12;3.10;91.80
5226;DHT22;2632;51.666;7.146;2023-02-28T18:03:39;3.10;93.60
5226;DHT22;2632;51.666;7.146;2023-02-28T18:06:06;3.00;93.50
5226;DHT22;2632;51.666;7.146;2023-02-28T18:08:34;2.80;94.50
5226;DHT22;2632;51.666;7.146;2023-02-28T18:11:01;2.70;95.40
5226;DHT22;2632;51.666;7.146;2023-02-28T18:13:28;2.70;94.90
5226;DHT22;2632;51.666;7.146;2023-02-28T18:15:55;2.60;95.90
5226;DHT22;2632;51.666;7.146;2023-02-28T18:18:21;2.50;95.90
5226;DHT22;2632;51.666;7.146;2023-02-28T18:20:48;2.50;96.90
5226;DHT22;2632;51.666;7.146;2023-02-28T18:23:16;2.50;95.80
5226;DHT22;2632;51.666;7.146;2023-02-28T18:25:43;2.50;96.60
5226;DHT22;2632;51.666;7.146;2023-02-28T18:28:10;2.40;96.40
5226;DHT22;2632;51.666;7.146;2023-02-28T18:30:37;2.40;96.50
5226;DHT22;2632;51.666;7.146;2023-02-28T18:33:04;2.40;95.50
5226;DHT22;2632;51.666;7.146;2023-02-28T18:35:31;2.40;96.10
5226;DHT22;2632;51.666;7.146;2023-02-28T18:40:28;2.40;95.80
5226;DHT22;2632;51.666;7.146;2023-02-28T18:42:55;2.30;96.90
5226;DHT22;2632;51.666;7.146;2023-02-28T18:45:22;2.20;96.80
5226;DHT22;2632;51.666;7.146;2023-02-28T18:47:51;2.10;97.30
5226;DHT22;2632;51.666;7.146;2023-02-28T18:50:18;2.00;98.50
5226;DHT22;2632;51.666;7.146;2023-02-28T18:52:45;1.80;97.80
5226;DHT22;2632;51.666;7.146;2023-02-28T18:55:11;1.50;97.80
5226;DHT22;2632;51.666;7.146;2023-02-28T18:57:45;1.70;98.40
5226;DHT22;2632;51.666;7.146;2023-02-28T19:00:14;1.60;99.20
5226;DHT22;2632;51.666;7.146;2023-02-28T19:02:41;1.50;98.40